createdAt,value
2023-04-10T00:00:04.158Z,8.36
2023-04-10T00:02:51.329Z,8.13
2023-04-10T00:05:36.871Z,7.29
2023-04-10T00:08:24.206Z,8.62
2023-04-10T00:11:09.627Z,8.64
2023-04-10T00:13:55.119Z,8.59
2023-04-10T00:16:41.139Z,8.78
2023-04-10T00:19:26.910Z,8.60
2023-04-10T00:22:12.231Z,8.89
2023-04-10T00:24:57.637Z,8.93
2023-04-10T00:27:43.151Z,8.80
2023-04-10T00:30:28.628Z,8.63
2023-04-10T00:33:14.700Z,8.89
2023-04-10T00:36:00.223Z,8.94
2023-04-10T00:38:46.576Z,8.82
2023-04-10T00:41:31.877Z,8.49
2023-04-10T00:44:17.687Z,8.81
2023-04-10T00:47:05.044Z,8.80
2023-04-10T00:49:50.758Z,8.69
2023-04-10T00:52:36.504Z,8.81
2023-04-10T00:55:21.859Z,8.73
2023-04-10T00:58:08.221Z,8.74
2023-04-10T01:00:56.329Z,8.66
2023-04-10T01:03:43.718Z,8.49
2023-04-10T01:06:48.165Z,8.71
2023-04-10T01:09:39.957Z,8.73
2023-04-10T01:13:19.817Z,8.74
2023-04-10T01:16:16.131Z,8.31
2023-04-10T01:19:11.384Z,8.49
2023-04-10T01:21:59.516Z,8.45
2023-04-10T01:25:27.132Z,8.58
2023-04-10T01:28:46.416Z,8.52
2023-04-10T01:31:39.190Z,8.51
2023-04-10T01:34:32.730Z,8.46
2023-04-10T01:37:27.793Z,8.40
2023-04-10T01:40:16.567Z,8.28
2023-04-10T01:43:06.326Z,8.38
2023-04-10T01:46:03.989Z,8.36
2023-04-10T01:48:52.246Z,8.32
2023-04-10T01:51:37.504Z,8.32
2023-04-10T01:54:28.069Z,8.10
2023-04-10T01:57:15.165Z,7.01
2023-04-10T02:00:27.955Z,8.24
2023-04-10T02:03:14.006Z,8.31
2023-04-10T02:06:16.096Z,8.32
2023-04-10T02:09:18.965Z,8.24
2023-04-10T02:12:09.335Z,8.16
2023-04-10T02:14:56.968Z,8.00
2023-04-10T02:17:42.968Z,8.22
2023-04-10T02:20:28.809Z,8.16
2023-04-10T02:23:17.334Z,8.19
2023-04-10T02:26:09.456Z,8.22
2023-04-10T02:28:55.254Z,8.25
2023-04-10T02:31:43.249Z,8.26
2023-04-10T02:34:29.552Z,8.25
2023-04-10T02:37:15.068Z,8.21
2023-04-10T02:40:00.701Z,8.22
2023-04-10T02:42:52.383Z,8.23
2023-04-10T02:45:38.405Z,8.17
2023-04-10T02:48:26.619Z,8.18
2023-04-10T02:51:18.389Z,8.10
2023-04-10T02:54:05.247Z,7.09
2023-04-10T02:56:51.892Z,6.90
2023-04-10T02:59:37.813Z,8.11
2023-04-10T03:02:24.810Z,6.86
2023-04-10T03:05:11.478Z,8.02
2023-04-10T03:07:56.829Z,8.09
2023-04-10T03:10:45.522Z,8.08
2023-04-10T03:13:31.349Z,7.93
2023-04-10T03:16:18.782Z,7.64
2023-04-10T03:19:05.381Z,6.70
2023-04-10T03:21:50.699Z,8.07
2023-04-10T03:24:38.354Z,7.96
2023-04-10T03:27:23.713Z,7.85
2023-04-10T03:30:09.952Z,7.85
2023-04-10T03:33:00.632Z,8.01
2023-04-10T03:35:47.525Z,8.03
2023-04-10T03:38:33.562Z,8.02
2023-04-10T03:41:18.867Z,8.03
2023-04-10T03:44:04.646Z,7.88
2023-04-10T03:46:50.541Z,7.99
2023-04-10T03:49:36.078Z,7.75
2023-04-10T03:52:25.973Z,7.95
2023-04-10T03:55:11.521Z,7.94
2023-04-10T03:57:56.911Z,6.72
2023-04-10T04:00:44.023Z,6.65
2023-04-10T04:03:38.515Z,7.82
2023-04-10T04:06:43.946Z,6.49
2023-04-10T04:09:45.009Z,7.85
2023-04-10T04:12:41.828Z,7.64
2023-04-10T04:15:40.836Z,7.54
2023-04-10T04:18:42.925Z,7.88
2023-04-10T04:21:48.551Z,7.89
2023-04-10T04:24:43.666Z,7.75
2023-04-10T04:27:42.889Z,7.91
2023-04-10T04:30:47.265Z,7.92
2023-04-10T04:33:46.553Z,7.89
2023-04-10T04:36:58.118Z,7.83
2023-04-10T04:40:14.467Z,7.88
2023-04-10T04:43:19.275Z,7.97
2023-04-10T04:46:19.369Z,7.98
2023-04-10T04:49:28.789Z,8.08
2023-04-10T04:52:46.564Z,7.91
2023-04-10T04:55:51.332Z,8.20
2023-04-10T04:58:58.310Z,8.20
2023-04-10T05:02:11.313Z,8.12
2023-04-10T05:05:18.085Z,8.06
2023-04-10T05:08:22.785Z,8.10
2023-04-10T05:11:32.255Z,8.02
2023-04-10T05:14:53.739Z,8.18
2023-04-10T05:18:00.246Z,8.09
2023-04-10T05:20:59.471Z,8.02
2023-04-10T05:27:04.227Z,7.35
2023-04-10T05:30:01.634Z,7.02
2023-04-10T05:32:56.281Z,8.06
2023-04-10T05:35:54.984Z,6.90
2023-04-10T05:38:51.565Z,8.10
2023-04-10T05:42:04.653Z,8.11
2023-04-10T05:45:17.164Z,8.13
2023-04-10T05:48:06.371Z,7.97
2023-04-10T05:51:25.051Z,8.01
2023-04-10T05:54:29.150Z,7.90
2023-04-10T05:57:40.882Z,8.06
2023-04-10T06:00:39.156Z,8.27
2023-04-10T06:03:44.510Z,8.38
2023-04-10T06:06:32.844Z,8.43
2023-04-10T06:09:18.688Z,7.46
2023-04-10T06:12:05.026Z,7.65
2023-04-10T06:14:50.910Z,8.37
2023-04-10T06:17:46.822Z,8.63
2023-04-10T06:20:33.231Z,8.50
2023-04-10T06:23:18.688Z,8.59
2023-04-10T06:26:05.688Z,7.60
2023-04-10T06:28:51.994Z,8.58
2023-04-10T06:31:38.763Z,8.62
2023-04-10T06:34:24.204Z,8.72
2023-04-10T06:37:19.435Z,8.73
2023-04-10T06:40:08.185Z,8.62
2023-04-10T06:42:53.846Z,8.67
2023-04-10T06:45:57.775Z,7.58
2023-04-10T06:48:43.672Z,8.78
2023-04-10T06:51:30.173Z,8.81
2023-04-10T06:54:17.212Z,8.84
2023-04-10T06:57:09.666Z,8.82
2023-04-10T07:00:06.552Z,8.83
2023-04-10T07:02:58.830Z,8.69
2023-04-10T07:05:46.332Z,8.72
2023-04-10T07:08:32.396Z,8.74
2023-04-10T07:11:18.268Z,8.79
2023-04-10T07:14:04.329Z,7.63
2023-04-10T07:16:49.834Z,8.72
2023-04-10T07:19:35.675Z,7.58
2023-04-10T07:22:21.637Z,8.75
2023-04-10T07:25:08.347Z,8.63
2023-04-10T07:27:53.933Z,8.68
2023-04-10T07:30:39.608Z,8.66
2023-04-10T07:33:25.034Z,7.71
2023-04-10T07:36:10.716Z,8.89
2023-04-10T07:38:57.431Z,8.94
2023-04-10T07:41:43.966Z,8.95
2023-04-10T07:44:30.576Z,8.96
2023-04-10T07:47:16.729Z,8.84
2023-04-10T07:50:02.853Z,7.92
2023-04-10T07:52:49.109Z,8.91
2023-04-10T07:55:39.421Z,8.92
2023-04-10T07:58:24.969Z,8.25
2023-04-10T08:01:11.265Z,9.23
2023-04-10T08:03:57.218Z,9.19
2023-04-10T08:06:43.222Z,9.33
2023-04-10T08:09:29.751Z,9.33
2023-04-10T08:12:16.157Z,9.34
2023-04-10T08:15:02.329Z,9.54
2023-04-10T08:17:47.950Z,8.58
2023-04-10T08:20:37.011Z,8.57
2023-04-10T08:23:27.652Z,9.77
2023-04-10T08:26:14.194Z,9.69
2023-04-10T08:29:01.010Z,9.83
2023-04-10T08:31:46.715Z,9.57
2023-04-10T08:34:32.284Z,9.59
2023-04-10T08:37:19.751Z,9.81
2023-04-10T08:40:06.816Z,9.86
2023-04-10T08:42:52.548Z,9.85
2023-04-10T08:45:40.936Z,9.72
2023-04-10T08:48:44.103Z,9.76
2023-04-10T08:51:39.543Z,9.51
2023-04-10T08:54:29.250Z,9.90
2023-04-10T08:57:20.983Z,9.59
2023-04-10T09:00:22.145Z,8.83
2023-04-10T09:03:12.063Z,10.05
2023-04-10T09:06:02.243Z,9.17
2023-04-10T09:08:48.954Z,10.10
2023-04-10T09:12:10.948Z,10.12
2023-04-10T09:14:57.411Z,8.96
2023-04-10T09:18:03.341Z,10.07
2023-04-10T09:20:51.828Z,9.55
2023-04-10T09:23:37.496Z,9.82
2023-04-10T09:26:27.890Z,9.98
2023-04-10T09:29:13.243Z,8.86
2023-04-10T09:31:59.206Z,9.98
2023-04-10T09:34:58.775Z,9.95
2023-04-10T09:37:47.185Z,9.70
2023-04-10T09:40:32.866Z,9.01
2023-04-10T09:43:20.996Z,9.92
2023-04-10T09:46:06.862Z,9.96
2023-04-10T09:49:00.878Z,10.10
2023-04-10T09:51:47.606Z,10.07
2023-04-10T09:54:37.113Z,9.15
2023-04-10T09:57:24.787Z,10.01
2023-04-10T10:00:12.755Z,9.04
2023-04-10T10:03:00.523Z,9.96
2023-04-10T10:05:49.246Z,10.13
2023-04-10T10:08:36.896Z,9.08
2023-04-10T10:11:25.113Z,10.25
2023-04-10T10:14:18.271Z,9.17
2023-04-10T10:17:12.425Z,10.09
2023-04-10T10:20:11.470Z,10.23
2023-04-10T10:23:04.348Z,10.15
2023-04-10T10:25:51.302Z,10.10
2023-04-10T10:28:37.875Z,10.18
2023-04-10T10:31:26.448Z,10.01
2023-04-10T10:34:13.564Z,10.19
2023-04-10T10:37:00.388Z,10.13
2023-04-10T10:40:04.853Z,10.19
2023-04-10T10:43:08.673Z,10.18
2023-04-10T10:46:17.526Z,9.11
2023-04-10T10:49:03.975Z,10.08
2023-04-10T10:51:50.963Z,9.46
2023-04-10T10:54:42.290Z,10.12
2023-04-10T10:57:47.422Z,9.19
2023-04-10T11:00:57.275Z,10.41
2023-04-10T11:03:46.785Z,10.51
2023-04-10T11:06:51.869Z,10.55
2023-04-10T11:09:52.433Z,10.48
2023-04-10T11:13:19.680Z,10.70
2023-04-10T11:16:07.731Z,10.70
2023-04-10T11:19:06.436Z,10.72
2023-04-10T11:22:03.587Z,10.62
2023-04-10T11:25:00.266Z,10.70
2023-04-10T11:27:51.760Z,9.99
2023-04-10T11:30:37.556Z,10.78
2023-04-10T11:33:23.181Z,9.69
2023-04-10T11:36:09.288Z,10.71
2023-04-10T11:38:55.272Z,10.72
2023-04-10T11:41:44.632Z,9.77
2023-04-10T11:44:33.048Z,10.63
2023-04-10T11:47:18.850Z,9.45
2023-04-10T11:50:06.319Z,9.65
2023-04-10T11:52:54.001Z,10.56
2023-04-10T11:55:41.183Z,10.51
2023-04-10T11:58:32.960Z,10.57
2023-04-10T12:01:21.340Z,10.13
2023-04-10T12:04:22.584Z,10.55
2023-04-10T12:07:08.776Z,10.30
2023-04-10T12:09:59.882Z,10.49
2023-04-10T12:12:46.997Z,10.61
2023-04-10T12:15:34.565Z,10.66
2023-04-10T12:18:22.496Z,9.61
2023-04-10T12:21:08.529Z,10.77
2023-04-10T12:23:54.451Z,10.79
2023-04-10T12:26:48.623Z,9.66
2023-04-10T12:29:34.289Z,10.82
2023-04-10T12:32:20.674Z,11.02
2023-04-10T12:35:07.734Z,10.99
2023-04-10T12:38:07.900Z,11.14
2023-04-10T12:41:03.281Z,10.04
2023-04-10T12:43:49.719Z,11.18
2023-04-10T12:46:39.412Z,11.30
2023-04-10T12:49:26.116Z,11.18
2023-04-10T12:52:22.946Z,11.34
2023-04-10T12:55:21.171Z,11.36
2023-04-10T12:58:22.627Z,11.33
2023-04-10T13:01:09.826Z,10.43
2023-04-10T13:03:56.275Z,11.16
2023-04-10T13:06:46.151Z,11.03
2023-04-10T13:09:32.591Z,10.78
2023-04-10T13:12:18.544Z,10.75
2023-04-10T13:15:05.083Z,9.72
2023-04-10T13:17:51.499Z,9.32
2023-04-10T13:20:38.929Z,10.18
2023-04-10T13:23:24.464Z,10.28
2023-04-10T13:26:10.783Z,10.20
2023-04-10T13:29:14.995Z,10.28
2023-04-10T13:32:12.318Z,10.28
2023-04-10T13:35:04.314Z,10.10
2023-04-10T13:37:53.218Z,10.28
2023-04-10T13:40:39.623Z,10.24
2023-04-10T13:43:25.149Z,10.42
2023-04-10T13:46:24.209Z,10.37
2023-04-10T13:49:10.035Z,10.60
2023-04-10T13:51:56.742Z,10.62
2023-04-10T13:54:43.083Z,10.69
2023-04-10T13:57:32.477Z,10.80
2023-04-10T14:00:18.210Z,10.73
2023-04-10T14:03:04.535Z,10.79
2023-04-10T14:05:50.709Z,10.65
2023-04-10T14:08:36.460Z,10.81
2023-04-10T14:11:23.619Z,9.65
2023-04-10T14:14:09.179Z,10.61
2023-04-10T14:16:55.282Z,10.95
2023-04-10T14:19:43.881Z,10.14
2023-04-10T14:22:30.503Z,10.92
2023-04-10T14:25:16.660Z,10.96
2023-04-10T14:28:02.563Z,9.83
2023-04-10T14:30:50.455Z,10.93
2023-04-10T14:33:36.789Z,10.85
2023-04-10T14:36:23.125Z,10.85
2023-04-10T14:39:39.422Z,10.89
2023-04-10T14:42:27.812Z,10.90
2023-04-10T14:45:14.633Z,10.90
2023-04-10T14:48:01.039Z,10.88
2023-04-10T14:50:47.266Z,9.77
2023-04-10T14:53:33.503Z,10.84
2023-04-10T14:56:22.612Z,10.89
2023-04-10T14:59:08.498Z,10.87
2023-04-10T15:01:54.897Z,10.98
2023-04-10T15:04:40.544Z,11.04
2023-04-10T15:07:29.264Z,11.03
2023-04-10T15:10:17.690Z,11.03
2023-04-10T15:13:04.081Z,11.07
2023-04-10T15:15:52.020Z,10.17
2023-04-10T15:18:41.986Z,11.11
2023-04-10T15:21:39.548Z,11.14
2023-04-10T15:24:30.716Z,11.13
2023-04-10T15:27:35.786Z,11.06
2023-04-10T15:30:34.481Z,10.79
2023-04-10T15:33:31.593Z,11.13
2023-04-10T15:36:17.696Z,11.09
2023-04-10T15:39:18.975Z,11.09
2023-04-10T15:42:06.136Z,11.07
2023-04-10T15:44:51.792Z,11.05
2023-04-10T15:47:37.851Z,10.79
2023-04-10T15:50:39.753Z,11.03
2023-04-10T15:53:29.130Z,11.02
2023-04-10T15:56:16.096Z,10.78
2023-04-10T15:59:01.895Z,10.80
2023-04-10T16:01:47.737Z,10.87
2023-04-10T16:04:33.289Z,10.91
2023-04-10T16:07:21.038Z,9.98
2023-04-10T16:10:09.333Z,10.82
2023-04-10T16:12:56.590Z,10.66
2023-04-10T16:15:41.944Z,10.83
2023-04-10T16:18:27.799Z,10.51
2023-04-10T16:21:16.521Z,10.84
2023-04-10T16:24:02.171Z,10.57
2023-04-10T16:26:47.912Z,10.81
2023-04-10T16:29:34.962Z,10.76
2023-04-10T16:32:21.304Z,10.05
2023-04-10T16:35:07.829Z,10.60
2023-04-10T16:37:53.950Z,10.56
2023-04-10T16:40:39.291Z,10.90
2023-04-10T16:43:29.353Z,10.94
2023-04-10T16:46:17.171Z,10.73
2023-04-10T16:49:03.030Z,10.52
2023-04-10T16:51:49.670Z,10.80
2023-04-10T16:54:37.933Z,10.85
2023-04-10T16:57:23.768Z,10.81
2023-04-10T17:00:11.156Z,10.51
2023-04-10T17:02:59.150Z,9.88
2023-04-10T17:05:46.752Z,10.81
2023-04-10T17:08:33.965Z,10.70
2023-04-10T17:11:19.965Z,9.73
2023-04-10T17:14:07.303Z,9.73
2023-04-10T17:16:54.100Z,10.79
2023-04-10T17:20:30.070Z,9.90
2023-04-10T17:23:18.510Z,9.81
2023-04-10T17:26:07.777Z,10.62
2023-04-10T17:29:08.948Z,10.45
2023-04-10T17:32:19.008Z,10.22
2023-04-10T17:35:16.699Z,9.99
2023-04-10T17:38:30.344Z,9.79
2023-04-10T17:41:54.990Z,9.59
2023-04-10T17:44:41.037Z,9.24
2023-04-10T17:47:27.818Z,8.16
2023-04-10T17:50:16.289Z,9.19
2023-04-10T17:53:13.223Z,9.22
2023-04-10T17:56:21.401Z,9.12
2023-04-10T17:59:12.737Z,9.17
2023-04-10T18:02:03.676Z,9.18
2023-04-10T18:04:50.179Z,8.08
2023-04-10T18:07:35.815Z,8.09
2023-04-10T18:10:21.585Z,9.22
2023-04-10T18:13:07.072Z,9.00
2023-04-10T18:15:52.475Z,9.33
2023-04-10T18:18:46.833Z,9.46
2023-04-10T18:21:37.669Z,9.42
2023-04-10T18:24:23.006Z,9.50
2023-04-10T18:27:08.344Z,9.62
2023-04-10T18:29:53.769Z,9.56
2023-04-10T18:32:40.431Z,9.40
2023-04-10T18:35:26.059Z,9.47
2023-04-10T18:38:11.469Z,9.56
2023-04-10T18:40:57.591Z,9.41
2023-04-10T18:43:46.681Z,9.27
2023-04-10T18:46:36.759Z,7.96
2023-04-10T18:49:22.363Z,8.77
2023-04-10T18:52:08.554Z,8.88
2023-04-10T18:54:54.820Z,8.67
2023-04-10T18:57:40.243Z,8.66
2023-04-10T19:00:25.985Z,8.75
2023-04-10T19:03:12.966Z,8.74
2023-04-10T19:05:58.959Z,8.70
2023-04-10T19:08:44.802Z,8.83
2023-04-10T19:11:30.379Z,8.67
2023-04-10T19:14:16.837Z,7.78
2023-04-10T19:17:06.004Z,8.93
2023-04-10T19:19:53.188Z,8.75
2023-04-10T19:22:38.841Z,7.63
2023-04-10T19:25:24.289Z,8.73
2023-04-10T19:28:12.685Z,8.79
2023-04-10T19:31:18.653Z,8.60
2023-04-10T19:34:12.668Z,8.51
2023-04-10T19:37:12.961Z,8.69
2023-04-10T19:40:08.743Z,8.40
2023-04-10T19:42:57.435Z,7.09
2023-04-10T19:45:44.850Z,7.93
2023-04-10T19:48:40.573Z,7.83
2023-04-10T19:51:30.274Z,7.67
2023-04-10T19:54:32.480Z,7.54
2023-04-10T19:57:18.296Z,7.11
2023-04-10T20:00:04.681Z,7.26
2023-04-10T20:03:00.145Z,7.02
2023-04-10T20:05:45.971Z,7.33
2023-04-10T20:08:31.875Z,7.31
2023-04-10T20:11:17.432Z,7.47
2023-04-10T20:14:02.937Z,7.59
2023-04-10T20:16:48.530Z,6.60
2023-04-10T20:19:34.611Z,7.74
2023-04-10T20:22:20.231Z,7.69
2023-04-10T20:25:06.458Z,7.77
2023-04-10T20:27:51.730Z,7.68
2023-04-10T20:30:40.420Z,7.71
2023-04-10T20:33:25.762Z,7.59
2023-04-10T20:36:11.636Z,7.54
2023-04-10T20:38:57.368Z,7.66
2023-04-10T20:41:43.155Z,7.50
2023-04-10T20:44:29.211Z,7.66
2023-04-10T20:47:15.393Z,6.27
2023-04-10T20:50:00.721Z,7.58
2023-04-10T20:52:46.328Z,7.21
2023-04-10T20:55:32.193Z,7.54
2023-04-10T20:58:20.784Z,7.60
2023-04-10T21:01:08.908Z,7.64
2023-04-10T21:03:56.170Z,7.65
2023-04-10T21:06:41.773Z,7.73
2023-04-10T21:09:27.842Z,7.13
2023-04-10T21:12:13.636Z,6.51
2023-04-10T21:14:59.255Z,6.28
2023-04-10T21:17:44.900Z,7.23
2023-04-10T21:20:31.206Z,7.30
2023-04-10T21:23:17.095Z,6.04
2023-04-10T21:26:03.570Z,5.91
2023-04-10T21:28:49.823Z,7.35
2023-04-10T21:31:45.000Z,7.38
2023-04-10T21:34:39.498Z,7.32
2023-04-10T21:37:25.138Z,7.37
2023-04-10T21:40:13.755Z,6.20
2023-04-10T21:43:00.710Z,7.41
2023-04-10T21:45:49.338Z,7.34
2023-04-10T21:48:36.540Z,6.50
2023-04-10T21:51:26.869Z,6.69
2023-04-10T21:54:13.679Z,7.22
2023-04-10T21:57:01.467Z,7.38
2023-04-10T21:59:46.899Z,6.27
2023-04-10T22:02:32.697Z,7.40
2023-04-10T22:05:18.662Z,6.40
2023-04-10T22:08:03.891Z,6.20
2023-04-10T22:10:50.944Z,6.05
2023-04-10T22:13:36.534Z,7.34
2023-04-10T22:16:22.092Z,7.35
2023-04-10T22:19:07.654Z,7.40
2023-04-10T22:21:53.449Z,7.30
2023-04-10T22:24:39.547Z,6.66
2023-04-10T22:27:27.553Z,7.17
2023-04-10T22:30:15.903Z,7.12
2023-04-10T22:33:01.808Z,6.95
2023-04-10T22:35:47.588Z,6.95
2023-04-10T22:38:32.957Z,6.94
2023-04-10T22:41:19.137Z,6.30
2023-04-10T22:44:05.065Z,6.62
2023-04-10T22:46:50.468Z,5.75
2023-04-10T22:49:35.932Z,6.76
2023-04-10T22:52:21.329Z,6.71
2023-04-10T22:55:07.737Z,6.76
2023-04-10T22:57:53.254Z,5.61
2023-04-10T23:00:38.822Z,6.85
2023-04-10T23:03:24.429Z,6.94
2023-04-10T23:06:09.950Z,5.95
2023-04-10T23:08:56.480Z,5.71
2023-04-10T23:11:42.082Z,5.60
2023-04-10T23:14:27.623Z,6.59
2023-04-10T23:17:13.090Z,6.45
2023-04-10T23:19:59.222Z,6.64
2023-04-10T23:22:44.649Z,6.67
2023-04-10T23:25:30.111Z,5.59
2023-04-10T23:28:15.763Z,6.87
2023-04-10T23:31:01.455Z,7.02
2023-04-10T23:33:46.891Z,7.16
2023-04-10T23:36:32.362Z,7.27
2023-04-10T23:39:17.842Z,7.13
2023-04-10T23:42:03.198Z,7.35
2023-04-10T23:44:48.657Z,7.35
2023-04-10T23:47:34.020Z,6.40
2023-04-10T23:50:19.313Z,7.49
2023-04-10T23:53:08.461Z,7.36
2023-04-10T23:55:54.112Z,6.47
2023-04-10T23:58:39.854Z,7.10
